Você está na página 1de 27

PRODUTOS METEOROLGICOS

METAR PROGNSTICO DE AERDROMO (TAF) PROGNSTICO DE REA (GAMET) MSL/FL100

AVISO DE WINDSHEAR (WS WRNG) (APROXIMAO)


PROGNSTICO DE REA (SIGWX) MSL/FL250 FL250/FL630 PROGNSTICO DE VENTO E TEMPERATURA (WIND ALOFT) VIGILNCIA NA FIR (SIGMET) VIGILNCIA NA FIR (AIRMET) MSL/FL100 AVISO DE AERDROMO (PROTEO DAS INSTALAES) AIREP (FIXOS AERONUTICOS) VOLMET (COMUNICAO TERRA/AVIO)

MENSAGEM METAR
FINALIDADE Operaes de pouso e decolagem. CONTEDO Localidade, Data e Horrio, Vento de Superfcie, Visibilidade, Tempo, Nuvens, Temperatura, Ponto de Orvalho, Ajuste QNH EXEMPLO METAR SBSP 201000Z 10010KT 2000 RA BKN020 OVC030 25/24 Q1012

MENSAGEM ESPECIAL SELECIONADA

SPECI: mudanas significativas nas condies de tempo do aerdromo.


SPECI SBPP 201030Z 10010KT 1000 +SHRA BKN020 SCT025CB OVC030 24/23 Q1012 =

CONDIO CAVOK
Ceiling And Visibility OK
- Visibilidade 10.000 m - Ausncia de nuvens cumulonimbus - Sem fenmeno meteorolgico significativo - Nuvem mais baixa 5.000 ps EXEMPLO METAR SBCT 151200Z 10010KT CAVOK 24/17 Q1021

ELEMENTOS DO METAR
VENTO DE SUPERFCIE
00000KT 10010KT 100 10KT
(Norte Geogrfico)

VENTO CALMO

12015G30KT
31015G45KT 280V350 VRB03KT VRB20KT

120 15KT RAJADAS 30KT


60 V 180 VEL 3KT DDD VARIANDO 180

ELEMENTOS DO METAR VISIBILIDADE HORIZONTAL (Estimada)


0000 0500 1000 5000 9000 9999 1400SE Visibilidade Zero (V 50 m) Visibilidade Predominante = 500 m Visibilidade Predominante = 1.000 m Visibilidade Predominante = 5.000 m Visibilidade Predominante = 9.000 m Visibilidade Predominante 10.000 m Visibilidade Mnima SE = 1.400 m

ELEMENTOS DO METAR
VISIBILIDADE NA PISTA (Medida)

R12/M0050 RVR PISTA 12 50 m R12/1000 RVR PISTA 12 = 1.000 m R18/P2000 RVR PISTA 18 2.000 m R18L/1200 RVR PISTA 18L = 1.200 m R18C/1200 RVR PISTA 18C = 1.200 m R18R/1200 RVR PISTA 18R = 1.200 m R15/0200U RVR PISTA 15 = 200 m (UP) R15/0600N RVR PISTA 15 = 600 m (NIL) R15/0400D RVR PISTA 15 = 400 m (DOWN) R10/0500V0800 RVR PISTA 10 variando de 500/800

FENMENOS METEOROLGICOS SIGNIFICATIVOS


QUALIFICADORES
INTENSIDADE
Leve () Moderada Forte (+)

FENMENOS (20)
PRECIPITVEIS OBSCURECEDORES OUTROS

DESCRITOR

MI BC PR DR

DZ RA SN SG IC PL GR GS

BR FG FU VA DU SA HZ

PO SQ FC SS DS

PROXIMIDADE VC (Vizinhana)

BL SH TS FZ

FENMENOS METEOROLGICOS SIGNIFICATIVOS


PRECIPITVEIS
DZ RA SN SG IC PL GR GS

PORTUGUS
CHUVISCO CHUVA NEVE GROS DE NEVE CRISTAIS DE GELO PELOTAS DE GELO GRANIZO (D5mm) GRANIZO (D<5mm)

INGLS
DRIZZLE RAIN SNOW SNOW GRAINS ICE CRYSTALS ICE PELLETS HAIL SMALL HAIL

FENMENOS METEOROLGICOS SIGNIFICATIVOS


OBSCURECEDORES
BR
FG

PORTUGUS
NVOA MIDA
NEVOEIRO

INGLS
MIST
FOG

FU
VA DU SA

FUMAA
CINZAS VULCNICAS POEIRA EXTENSA AREIA

SMOKE
VOLCANIC ASHES DUST SAND

HZ

NVOA SECA

HAZE

FENMENOS METEOROLGICOS SIGNIFICATIVOS


OUTROS
PO

PORTUGUS
POEIRA OU AREIA

INGLS
DUST OR

EM REMOINHOS
SQ FC TESPESTADE NUVEM FUNIL

SAND WHIRLS
SQUALLS FUNNEL CLOUD

SS
DS

TEMPESTADE DE AREIA
TEMPESTADE DE POEIRA

SANDSTORM
DUSTSTORM

FENMENOS METEOROLGICOS SIGNIFICATIVOS


QUALIFICADOR MI (MIFG) BC (BCFG) PR (PRFG) DR (DRSN) BL (BLSA) SH (SHRA) TS (TSRA) FZ (FZDZ) VC (VCFC) PORTUGUS BAIXO BANCO PARCIAL FLUTUANTE SOPRADA PANCADA TROVOADA CONGELANTE VIZINHANAS INGLS SHALLOW PATCHES PARTIAL LOW DRIFTING BLOWING SHOWERS THUNDERSTORM FREEZING IN THE VICINITY

ELEMENTOS DO METAR
CAMADAS DE NUVENS (oitavos do cu / altura)
SKC FEW010 SCT020 BKN030 OVC040 FEW030CB Cu claro 1/8 a 2/8 a 1.000 ps 3/8 a 4/8 a 2.000 ps 5/8 a 7/8 a 3.000 ps 8/8 a 4.000 ps 1/8 a 2/8 de CB a 3.000 ps

SCT030TCU VV001

3/8 a 4/8 de TCU a 3.000 ps VVertical = 100 ps (cu obscurecido)

ELEMENTOS DO METAR
TEMPERATURA DO AR / PONTO DE ORVALHO 32/28 25/20 10/09 00/M01 M05/M06 AJUSTE DO ALTMETRO (QNH) Q0999 Q1000 Q1013 Q1018 (hPa) A2900 A2992 A3005 A3010 (Pol Hg)

ELEMENTOS DO METAR

INFORMAES SUPLEMENTARES
I - TEMPO RECENTE EXEMPLO: METAR SBRJ 201000Z 10010KT 3000 BR BKN020 OVC030 25/24 Q1012 RERA

ELEMENTOS DO METAR

INFORMAES SUPLEMENTARES
II - CORTANTE DO VENTO EXEMPLO: METAR SBRJ 201000Z 10010KT 3000 BR BKN020 OVC030 25/24 Q1012 WS RWY09

ELEMENTOS DO METAR
INFORMAES SUPLEMENTARES III - TEMPERATURA / ESTADO DO MAR W22/S5
0 MAR CALMO 1 MAR ENRUGADO 2 MAR ONDULADO 3 MAR LEVE 4 MAR MODERADO 5 MAR AGITADO 6 MAR MUITO AGITADO 7 MAR ALTO 8 MAR MUITO ALTO 9 MAR FENOMENAL (ONDAS at 0,1 m) (ONDAS 0,1 a 0,5 m) (ONDAS 0,5 a 1,25 m) (ONDAS 1,25 a 2,5 m) (ONDAS 2,5 a 4 m) (ONDAS 4 a 6 m) (ONDAS 6 a 9 m) (ONDAS 9 a 14 m) (ONDAS acima de 14m)

ELEMENTOS DO METAR
INFORMAES SUPLEMENTARES
IV - ESTADO DA PISTA
09 4 2 15 95

09421595

NMERO DA PISTA TIPO DE MATERIAL NA PISTA EXTENSO DO DEPSITO PROFUNDIDADE DO DEPSITO COEFICIENTE DE ATRITO

(TAB 0919) (TAB 0519) (TAB 1079) (TAB 0366)

TABELA 0919 (tipo de material na pista)


0
1 2 3 4 5 6 7 8 9

Pista limpa e seca


Pista mida Pista molhada e com poas dgua Pista coberta com geada (< 1 mm) Pista com neve seca Pista com neve mida Pista com neve em fuso Pista com gelo Pista com neve compactada Pista congelada, com ondulaes

Pista em processo de limpeza

TABELA 0519 (extenso da pista)


1
2 3 4 5

10%
11 a 25% Reservado Reservado 26 a 50%

6
7 8 9 /

Reservado
Reservado Reservado 51 a 100% Pista em processo de limpeza

TABELA 1079 (profundidade do depsito)


00 01 02 < 1 mm = 1 mm = 2 mm

03
04

= 3 mm
= 4 mm

05
06 07

= 5 mm
= 6 mm = 7 mm

08
09

= 8 mm
= 9 mm

TABELA 1079 (profundidade do depsito)


81 82 83 = 81 mm = 82 mm = 83 mm

84
85

= 84 mm
= 85 mm

86
87 88

= 86 mm
= 87 mm = 88 mm

89
90

= 89 mm
= 90 mm

TABELA 1079 (profundidade do depsito)


91 92 93 Reservado 10 mm 15 mm

94
95

20 mm
25 mm

96
97 98

30 mm
35 mm 40 mm

99
//

Pista inoperante
Profundidade no significativa

TABELA 0366 (coeficiente de atrito)


00 01 02 = 0,00 = 0,01 = 0,02

03
04

= 0,03
= 0,04

05
06 07

= 0,05
= 0,06 = 0,07

08
09

= 0,08
= 0,09

TABELA 0366 (coeficiente de atrito)


10 20 30 = 0,10 = 0,20 = 0,30

40 50 60
70 80 90

= 0,40 = 0,50 = 0,60


= 0,70 = 0,80 = 0,90

TABELA 0366 (coeficiente de atrito)


91 92 93 94 Insuficiente Mdio a insuficiente Mdio Mdio a bom

95 96
97 98 99 //

Bom Reservado
Reservado Reservado Indeterminado Pista inoperante

RESUMO

INFORMAES SUPLEMENTARES
Tempo Recente Cortante do Vento RERA WS RWY18

Temperatura / Estado do Mar W22/S5 Estado da Pista 09421595 SNOCLO (Fechado) CLRD// (Liberado)